sensor_id;sensor_type;location;lat;lon;timestamp;P1;durP1;ratioP1;P2;durP2;ratioP2
69334;SDS011;56477;52.742;15.242;2023-08-31T00:02:07;8.73;;;6.00;;
69334;SDS011;56477;52.742;15.242;2023-08-31T00:04:34;9.73;;;5.57;;
69334;SDS011;56477;52.742;15.242;2023-08-31T00:07:00;8.35;;;5.30;;
69334;SDS011;56477;52.742;15.242;2023-08-31T00:09:26;8.23;;;5.00;;
69334;SDS011;56477;52.742;15.242;2023-08-31T00:11:52;9.05;;;4.38;;
69334;SDS011;56477;52.742;15.242;2023-08-31T00:14:18;8.60;;;5.20;;
69334;SDS011;56477;52.742;15.242;2023-08-31T00:16:44;8.35;;;4.70;;
69334;SDS011;56477;52.742;15.242;2023-08-31T00:19:12;7.50;;;4.68;;
69334;SDS011;56477;52.742;15.242;2023-08-31T00:21:40;11.98;;;5.20;;
69334;SDS011;56477;52.742;15.242;2023-08-31T00:24:06;8.77;;;4.28;;
69334;SDS011;56477;52.742;15.242;2023-08-31T00:26:35;7.07;;;4.00;;
69334;SDS011;56477;52.742;15.242;2023-08-31T00:29:10;6.70;;;4.47;;
69334;SDS011;56477;52.742;15.242;2023-08-31T00:31:37;6.07;;;4.32;;
69334;SDS011;56477;52.742;15.242;2023-08-31T00:34:03;8.52;;;4.25;;
69334;SDS011;56477;52.742;15.242;2023-08-31T00:36:33;9.70;;;5.57;;
69334;SDS011;56477;52.742;15.242;2023-08-31T00:39:05;7.83;;;5.00;;
69334;SDS011;56477;52.742;15.242;2023-08-31T00:41:32;9.02;;;5.72;;
69334;SDS011;56477;52.742;15.242;2023-08-31T00:43:58;9.10;;;5.18;;
69334;SDS011;56477;52.742;15.242;2023-08-31T00:46:24;7.13;;;4.32;;
69334;SDS011;56477;52.742;15.242;2023-08-31T00:48:53;5.40;;;3.80;;
69334;SDS011;56477;52.742;15.242;2023-08-31T00:51:20;7.90;;;4.85;;
69334;SDS011;56477;52.742;15.242;2023-08-31T00:53:47;7.28;;;4.80;;
69334;SDS011;56477;52.742;15.242;2023-08-31T00:56:16;7.22;;;4.22;;
69334;SDS011;56477;52.742;15.242;2023-08-31T00:58:43;6.95;;;4.53;;
69334;SDS011;56477;52.742;15.242;2023-08-31T01:03:53;8.18;;;4.90;;
69334;SDS011;56477;52.742;15.242;2023-08-31T01:09:19;9.10;;;5.00;;
69334;SDS011;56477;52.742;15.242;2023-08-31T01:12:09;9.25;;;5.57;;
69334;SDS011;56477;52.742;15.242;2023-08-31T01:14:44;8.30;;;5.20;;
69334;SDS011;56477;52.742;15.242;2023-08-31T01:17:16;10.40;;;5.10;;
69334;SDS011;56477;52.742;15.242;2023-08-31T01:19:48;9.13;;;5.32;;
69334;SDS011;56477;52.742;15.242;2023-08-31T01:22:38;9.85;;;5.47;;
69334;SDS011;56477;52.742;15.242;2023-08-31T01:25:20;8.35;;;5.30;;
69334;SDS011;56477;52.742;15.242;2023-08-31T01:27:47;9.47;;;5.60;;
69334;SDS011;56477;52.742;15.242;2023-08-31T01:30:13;10.13;;;5.93;;
69334;SDS011;56477;52.742;15.242;2023-08-31T01:32:43;8.73;;;5.30;;
69334;SDS011;56477;52.742;15.242;2023-08-31T01:35:13;9.90;;;4.95;;
69334;SDS011;56477;52.742;15.242;2023-08-31T01:37:55;10.48;;;6.28;;
69334;SDS011;56477;52.742;15.242;2023-08-31T01:43:16;10.15;;;6.03;;
69334;SDS011;56477;52.742;15.242;2023-08-31T01:45:43;12.05;;;6.32;;
69334;SDS011;56477;52.742;15.242;2023-08-31T01:48:11;11.43;;;6.55;;
69334;SDS011;56477;52.742;15.242;2023-08-31T01:50:39;12.82;;;6.95;;
69334;SDS011;56477;52.742;15.242;2023-08-31T01:53:05;10.10;;;5.67;;
69334;SDS011;56477;52.742;15.242;2023-08-31T01:55:32;9.70;;;5.43;;
69334;SDS011;56477;52.742;15.242;2023-08-31T01:57:58;11.88;;;6.13;;
69334;SDS011;56477;52.742;15.242;2023-08-31T02:00:24;11.67;;;6.27;;
69334;SDS011;56477;52.742;15.242;2023-08-31T02:02:51;13.53;;;6.10;;
69334;SDS011;56477;52.742;15.242;2023-08-31T02:05:16;10.95;;;6.90;;
69334;SDS011;56477;52.742;15.242;2023-08-31T02:07:43;12.00;;;6.78;;
69334;SDS011;56477;52.742;15.242;2023-08-31T02:10:09;11.55;;;6.95;;
69334;SDS011;56477;52.742;15.242;2023-08-31T02:12:35;13.20;;;6.97;;
69334;SDS011;56477;52.742;15.242;2023-08-31T02:15:05;10.90;;;6.47;;
69334;SDS011;56477;52.742;15.242;2023-08-31T02:17:33;14.07;;;7.35;;
69334;SDS011;56477;52.742;15.242;2023-08-31T02:19:59;11.68;;;7.40;;
69334;SDS011;56477;52.742;15.242;2023-08-31T02:22:26;12.77;;;7.50;;
69334;SDS011;56477;52.742;15.242;2023-08-31T02:24:51;11.83;;;7.70;;
69334;SDS011;56477;52.742;15.242;2023-08-31T02:27:18;14.40;;;8.55;;
69334;SDS011;56477;52.742;15.242;2023-08-31T02:29:43;14.87;;;9.17;;
69334;SDS011;56477;52.742;15.242;2023-08-31T02:32:09;14.20;;;8.10;;
69334;SDS011;56477;52.742;15.242;2023-08-31T02:34:35;15.68;;;8.40;;
69334;SDS011;56477;52.742;15.242;2023-08-31T02:37:01;12.25;;;7.47;;
69334;SDS011;56477;52.742;15.242;2023-08-31T02:39:27;16.67;;;8.20;;
69334;SDS011;56477;52.742;15.242;2023-08-31T02:41:53;12.07;;;7.55;;
69334;SDS011;56477;52.742;15.242;2023-08-31T02:44:19;15.45;;;7.85;;
69334;SDS011;56477;52.742;15.242;2023-08-31T02:46:45;11.53;;;7.60;;
69334;SDS011;56477;52.742;15.242;2023-08-31T02:49:10;14.07;;;7.60;;
69334;SDS011;56477;52.742;15.242;2023-08-31T02:51:36;12.38;;;7.13;;
69334;SDS011;56477;52.742;15.242;2023-08-31T02:54:02;13.20;;;7.67;;
69334;SDS011;56477;52.742;15.242;2023-08-31T02:56:30;12.43;;;7.55;;
69334;SDS011;56477;52.742;15.242;2023-08-31T02:58:56;11.02;;;7.60;;
69334;SDS011;56477;52.742;15.242;2023-08-31T03:01:22;13.60;;;6.85;;
69334;SDS011;56477;52.742;15.242;2023-08-31T03:03:49;12.00;;;7.50;;
69334;SDS011;56477;52.742;15.242;2023-08-31T03:06:16;12.68;;;7.45;;
69334;SDS011;56477;52.742;15.242;2023-08-31T03:08:42;13.35;;;7.85;;
69334;SDS011;56477;52.742;15.242;2023-08-31T03:11:08;12.25;;;7.38;;
69334;SDS011;56477;52.742;15.242;2023-08-31T03:13:34;14.93;;;7.60;;
69334;SDS011;56477;52.742;15.242;2023-08-31T03:16:00;15.47;;;8.27;;
69334;SDS011;56477;52.742;15.242;2023-08-31T03:18:28;13.73;;;8.00;;
69334;SDS011;56477;52.742;15.242;2023-08-31T03:20:54;13.45;;;7.95;;
69334;SDS011;56477;52.742;15.242;2023-08-31T03:23:21;13.82;;;7.70;;
69334;SDS011;56477;52.742;15.242;2023-08-31T03:25:47;16.77;;;8.52;;
69334;SDS011;56477;52.742;15.242;2023-08-31T03:28:12;13.17;;;7.63;;
69334;SDS011;56477;52.742;15.242;2023-08-31T03:30:39;13.30;;;8.02;;
69334;SDS011;56477;52.742;15.242;2023-08-31T03:33:04;11.87;;;8.03;;
69334;SDS011;56477;52.742;15.242;2023-08-31T03:35:31;13.98;;;7.85;;
69334;SDS011;56477;52.742;15.242;2023-08-31T03:37:57;13.38;;;7.97;;
69334;SDS011;56477;52.742;15.242;2023-08-31T03:40:24;15.05;;;7.68;;
69334;SDS011;56477;52.742;15.242;2023-08-31T03:42:49;12.10;;;7.57;;
69334;SDS011;56477;52.742;15.242;2023-08-31T03:45:16;11.40;;;7.05;;
69334;SDS011;56477;52.742;15.242;2023-08-31T03:47:41;15.13;;;7.78;;
69334;SDS011;56477;52.742;15.242;2023-08-31T03:50:08;11.80;;;7.07;;
69334;SDS011;56477;52.742;15.242;2023-08-31T03:52:34;11.00;;;7.22;;
69334;SDS011;56477;52.742;15.242;2023-08-31T03:55:00;12.00;;;7.17;;
69334;SDS011;56477;52.742;15.242;2023-08-31T03:57:26;12.48;;;7.20;;
69334;SDS011;56477;52.742;15.242;2023-08-31T03:59:52;10.32;;;6.85;;
69334;SDS011;56477;52.742;15.242;2023-08-31T04:02:18;13.30;;;6.87;;
69334;SDS011;56477;52.742;15.242;2023-08-31T04:04:44;11.27;;;7.05;;
69334;SDS011;56477;52.742;15.242;2023-08-31T04:07:09;11.60;;;6.65;;
69334;SDS011;56477;52.742;15.242;2023-08-31T04:09:35;12.07;;;7.27;;
69334;SDS011;56477;52.742;15.242;2023-08-31T04:12:01;12.25;;;6.82;;
69334;SDS011;56477;52.742;15.242;2023-08-31T04:14:27;14.13;;;8.00;;
69334;SDS011;56477;52.742;15.242;2023-08-31T04:16:56;13.63;;;7.45;;
69334;SDS011;56477;52.742;15.242;2023-08-31T04:19:22;10.70;;;6.60;;
69334;SDS011;56477;52.742;15.242;2023-08-31T04:21:48;11.80;;;7.20;;
69334;SDS011;56477;52.742;15.242;2023-08-31T04:24:14;12.07;;;7.10;;
69334;SDS011;56477;52.742;15.242;2023-08-31T04:26:40;12.17;;;7.50;;
69334;SDS011;56477;52.742;15.242;2023-08-31T04:29:06;11.77;;;6.90;;
69334;SDS011;56477;52.742;15.242;2023-08-31T04:31:32;11.73;;;7.07;;
69334;SDS011;56477;52.742;15.242;2023-08-31T04:33:58;11.35;;;7.40;;
69334;SDS011;56477;52.742;15.242;2023-08-31T04:36:24;12.23;;;7.70;;
69334;SDS011;56477;52.742;15.242;2023-08-31T04:38:51;12.10;;;7.55;;
69334;SDS011;56477;52.742;15.242;2023-08-31T04:41:17;14.23;;;7.25;;
69334;SDS011;56477;52.742;15.242;2023-08-31T04:43:44;12.90;;;6.73;;
69334;SDS011;56477;52.742;15.242;2023-08-31T04:46:10;10.55;;;6.28;;
69334;SDS011;56477;52.742;15.242;2023-08-31T04:48:36;9.85;;;6.00;;
69334;SDS011;56477;52.742;15.242;2023-08-31T04:51:01;11.93;;;6.68;;
69334;SDS011;56477;52.742;15.242;2023-08-31T04:53:29;9.37;;;6.27;;
69334;SDS011;56477;52.742;15.242;2023-08-31T04:55:58;13.35;;;7.63;;
69334;SDS011;56477;52.742;15.242;2023-08-31T04:58:24;13.38;;;7.75;;
69334;SDS011;56477;52.742;15.242;2023-08-31T05:00:51;14.05;;;7.40;;
69334;SDS011;56477;52.742;15.242;2023-08-31T05:03:17;12.90;;;7.88;;
69334;SDS011;56477;52.742;15.242;2023-08-31T05:05:43;10.23;;;5.83;;
69334;SDS011;56477;52.742;15.242;2023-08-31T05:08:09;14.60;;;8.02;;
69334;SDS011;56477;52.742;15.242;2023-08-31T05:10:35;11.90;;;7.28;;
69334;SDS011;56477;52.742;15.242;2023-08-31T05:13:01;7.37;;;4.33;;
69334;SDS011;56477;52.742;15.242;2023-08-31T05:15:29;11.43;;;7.22;;
69334;SDS011;56477;52.742;15.242;2023-08-31T05:17:55;9.18;;;6.15;;
69334;SDS011;56477;52.742;15.242;2023-08-31T05:20:21;13.10;;;8.40;;
69334;SDS011;56477;52.742;15.242;2023-08-31T05:22:50;14.23;;;7.90;;
69334;SDS011;56477;52.742;15.242;2023-08-31T05:25:16;13.43;;;8.07;;
69334;SDS011;56477;52.742;15.242;2023-08-31T05:27:43;12.25;;;8.85;;
69334;SDS011;56477;52.742;15.242;2023-08-31T05:30:09;14.43;;;9.20;;
69334;SDS011;56477;52.742;15.242;2023-08-31T05:32:35;12.98;;;7.57;;
69334;SDS011;56477;52.742;15.242;2023-08-31T05:35:01;12.48;;;7.05;;
69334;SDS011;56477;52.742;15.242;2023-08-31T05:37:31;12.03;;;7.07;;
69334;SDS011;56477;52.742;15.242;2023-08-31T05:40:01;13.38;;;8.60;;
69334;SDS011;56477;52.742;15.242;2023-08-31T05:42:35;14.48;;;8.52;;
69334;SDS011;56477;52.742;15.242;2023-08-31T05:45:01;13.30;;;8.68;;
69334;SDS011;56477;52.742;15.242;2023-08-31T05:47:27;13.07;;;8.67;;
69334;SDS011;56477;52.742;15.242;2023-08-31T05:49:53;16.38;;;8.90;;
69334;SDS011;56477;52.742;15.242;2023-08-31T05:52:19;14.23;;;8.32;;
69334;SDS011;56477;52.742;15.242;2023-08-31T05:54:44;12.80;;;8.87;;
69334;SDS011;56477;52.742;15.242;2023-08-31T05:57:10;13.60;;;8.07;;
69334;SDS011;56477;52.742;15.242;2023-08-31T05:59:36;10.05;;;5.57;;
69334;SDS011;56477;52.742;15.242;2023-08-31T06:02:02;11.82;;;7.63;;
69334;SDS011;56477;52.742;15.242;2023-08-31T06:04:29;8.97;;;5.23;;
69334;SDS011;56477;52.742;15.242;2023-08-31T06:06:56;13.27;;;8.45;;
69334;SDS011;56477;52.742;15.242;2023-08-31T06:09:22;10.82;;;7.60;;
69334;SDS011;56477;52.742;15.242;2023-08-31T06:11:48;12.50;;;8.40;;
69334;SDS011;56477;52.742;15.242;2023-08-31T06:14:14;13.60;;;9.07;;
69334;SDS011;56477;52.742;15.242;2023-08-31T06:16:40;9.57;;;6.00;;
69334;SDS011;56477;52.742;15.242;2023-08-31T06:19:06;12.20;;;8.23;;
69334;SDS011;56477;52.742;15.242;2023-08-31T06:21:32;13.43;;;7.73;;
69334;SDS011;56477;52.742;15.242;2023-08-31T06:23:57;12.52;;;7.82;;
69334;SDS011;56477;52.742;15.242;2023-08-31T06:26:24;7.80;;;4.13;;
69334;SDS011;56477;52.742;15.242;2023-08-31T06:28:49;14.90;;;9.20;;
69334;SDS011;56477;52.742;15.242;2023-08-31T06:31:16;14.93;;;8.57;;
69334;SDS011;56477;52.742;15.242;2023-08-31T06:33:42;13.85;;;8.57;;
69334;SDS011;56477;52.742;15.242;2023-08-31T06:36:08;14.57;;;8.52;;
69334;SDS011;56477;52.742;15.242;2023-08-31T06:38:34;14.20;;;8.67;;
69334;SDS011;56477;52.742;15.242;2023-08-31T06:41:01;13.43;;;8.25;;
69334;SDS011;56477;52.742;15.242;2023-08-31T06:43:28;13.93;;;8.90;;
69334;SDS011;56477;52.742;15.242;2023-08-31T06:45:54;12.07;;;6.90;;
69334;SDS011;56477;52.742;15.242;2023-08-31T06:48:19;11.70;;;7.43;;
69334;SDS011;56477;52.742;15.242;2023-08-31T06:50:46;8.63;;;5.43;;
69334;SDS011;56477;52.742;15.242;2023-08-31T06:53:12;11.05;;;7.47;;
69334;SDS011;56477;52.742;15.242;2023-08-31T06:55:38;11.32;;;7.65;;
69334;SDS011;56477;52.742;15.242;2023-08-31T06:58:04;9.70;;;6.53;;
69334;SDS011;56477;52.742;15.242;2023-08-31T07:00:31;11.50;;;8.02;;
69334;SDS011;56477;52.742;15.242;2023-08-31T07:02:57;12.15;;;7.57;;
69334;SDS011;56477;52.742;15.242;2023-08-31T07:05:27;14.23;;;6.90;;
69334;SDS011;56477;52.742;15.242;2023-08-31T07:07:54;10.55;;;5.05;;
69334;SDS011;56477;52.742;15.242;2023-08-31T07:10:21;9.67;;;5.40;;
69334;SDS011;56477;52.742;15.242;2023-08-31T07:12:47;10.25;;;6.93;;
69334;SDS011;56477;52.742;15.242;2023-08-31T07:15:13;13.75;;;7.40;;
69334;SDS011;56477;52.742;15.242;2023-08-31T07:17:39;8.10;;;4.47;;
69334;SDS011;56477;52.742;15.242;2023-08-31T07:20:05;11.60;;;7.60;;
69334;SDS011;56477;52.742;15.242;2023-08-31T07:22:34;11.43;;;7.53;;
69334;SDS011;56477;52.742;15.242;2023-08-31T07:25:01;13.20;;;7.82;;
69334;SDS011;56477;52.742;15.242;2023-08-31T07:27:28;8.80;;;5.30;;
69334;SDS011;56477;52.742;15.242;2023-08-31T07:29:54;11.30;;;7.13;;
69334;SDS011;56477;52.742;15.242;2023-08-31T07:32:20;14.27;;;6.87;;
69334;SDS011;56477;52.742;15.242;2023-08-31T07:34:48;7.90;;;5.20;;
69334;SDS011;56477;52.742;15.242;2023-08-31T07:37:13;11.00;;;6.90;;
69334;SDS011;56477;52.742;15.242;2023-08-31T07:39:39;10.75;;;5.90;;
69334;SDS011;56477;52.742;15.242;2023-08-31T07:42:05;8.20;;;4.43;;
69334;SDS011;56477;52.742;15.242;2023-08-31T07:44:32;11.82;;;6.15;;
69334;SDS011;56477;52.742;15.242;2023-08-31T07:46:57;10.50;;;5.77;;
69334;SDS011;56477;52.742;15.242;2023-08-31T07:49:24;13.50;;;6.90;;
69334;SDS011;56477;52.742;15.242;2023-08-31T07:51:49;11.80;;;7.35;;
69334;SDS011;56477;52.742;15.242;2023-08-31T07:54:21;9.25;;;5.32;;
69334;SDS011;56477;52.742;15.242;2023-08-31T07:56:48;9.20;;;5.23;;
69334;SDS011;56477;52.742;15.242;2023-08-31T07:59:14;11.70;;;7.20;;
69334;SDS011;56477;52.742;15.242;2023-08-31T08:01:40;12.10;;;6.32;;
69334;SDS011;56477;52.742;15.242;2023-08-31T08:04:10;8.75;;;4.82;;
69334;SDS011;56477;52.742;15.242;2023-08-31T08:06:36;8.43;;;4.70;;
69334;SDS011;56477;52.742;15.242;2023-08-31T08:09:02;8.50;;;4.70;;
69334;SDS011;56477;52.742;15.242;2023-08-31T08:11:30;7.57;;;4.15;;
69334;SDS011;56477;52.742;15.242;2023-08-31T08:13:56;9.45;;;4.43;;
69334;SDS011;56477;52.742;15.242;2023-08-31T08:16:22;9.03;;;5.27;;
69334;SDS011;56477;52.742;15.242;2023-08-31T08:18:49;8.97;;;3.97;;
69334;SDS011;56477;52.742;15.242;2023-08-31T08:21:15;9.20;;;5.13;;
69334;SDS011;56477;52.742;15.242;2023-08-31T08:23:41;6.55;;;3.67;;
69334;SDS011;56477;52.742;15.242;2023-08-31T08:26:07;7.93;;;4.53;;
69334;SDS011;56477;52.742;15.242;2023-08-31T08:28:33;8.20;;;4.90;;
69334;SDS011;56477;52.742;15.242;2023-08-31T08:31:02;10.05;;;4.88;;
69334;SDS011;56477;52.742;15.242;2023-08-31T08:33:31;8.95;;;4.53;;
69334;SDS011;56477;52.742;15.242;2023-08-31T08:35:57;7.20;;;3.67;;
69334;SDS011;56477;52.742;15.242;2023-08-31T08:38:23;8.77;;;4.93;;
69334;SDS011;56477;52.742;15.242;2023-08-31T08:40:49;7.70;;;4.13;;
69334;SDS011;56477;52.742;15.242;2023-08-31T08:43:15;8.65;;;4.85;;
69334;SDS011;56477;52.742;15.242;2023-08-31T08:45:49;6.82;;;4.40;;
69334;SDS011;56477;52.742;15.242;2023-08-31T08:48:16;8.07;;;4.77;;
69334;SDS011;56477;52.742;15.242;2023-08-31T08:50:43;7.55;;;3.47;;
69334;SDS011;56477;52.742;15.242;2023-08-31T08:53:09;11.02;;;5.03;;
69334;SDS011;56477;52.742;15.242;2023-08-31T08:55:36;7.30;;;3.92;;
69334;SDS011;56477;52.742;15.242;2023-08-31T08:58:03;5.07;;;2.63;;
69334;SDS011;56477;52.742;15.242;2023-08-31T09:00:29;6.93;;;3.83;;
69334;SDS011;56477;52.742;15.242;2023-08-31T09:02:55;11.02;;;5.60;;
69334;SDS011;56477;52.742;15.242;2023-08-31T09:05:22;7.57;;;3.92;;
69334;SDS011;56477;52.742;15.242;2023-08-31T09:08:05;9.57;;;5.07;;
69334;SDS011;56477;52.742;15.242;2023-08-31T09:10:38;9.57;;;5.88;;
69334;SDS011;56477;52.742;15.242;2023-08-31T09:13:09;8.17;;;3.70;;
69334;SDS011;56477;52.742;15.242;2023-08-31T09:15:40;7.70;;;4.65;;
69334;SDS011;56477;52.742;15.242;2023-08-31T09:20:52;8.32;;;4.70;;
69334;SDS011;56477;52.742;15.242;2023-08-31T09:23:18;9.30;;;5.35;;
69334;SDS011;56477;52.742;15.242;2023-08-31T09:25:48;6.27;;;3.57;;
69334;SDS011;56477;52.742;15.242;2023-08-31T09:28:16;7.75;;;4.20;;
69334;SDS011;56477;52.742;15.242;2023-08-31T09:30:45;10.27;;;5.03;;
69334;SDS011;56477;52.742;15.242;2023-08-31T09:33:14;8.45;;;5.10;;
69334;SDS011;56477;52.742;15.242;2023-08-31T09:35:47;7.57;;;4.55;;
69334;SDS011;56477;52.742;15.242;2023-08-31T09:38:15;7.57;;;4.70;;
69334;SDS011;56477;52.742;15.242;2023-08-31T09:40:41;6.63;;;3.20;;
69334;SDS011;56477;52.742;15.242;2023-08-31T09:43:07;7.28;;;3.92;;
69334;SDS011;56477;52.742;15.242;2023-08-31T09:45:34;7.00;;;4.28;;
69334;SDS011;56477;52.742;15.242;2023-08-31T09:48:01;9.60;;;5.80;;
69334;SDS011;56477;52.742;15.242;2023-08-31T09:50:28;8.52;;;5.30;;
69334;SDS011;56477;52.742;15.242;2023-08-31T09:53:03;11.20;;;6.68;;
69334;SDS011;56477;52.742;15.242;2023-08-31T09:55:31;4.03;;;2.58;;
69334;SDS011;56477;52.742;15.242;2023-08-31T09:57:58;5.40;;;3.60;;
69334;SDS011;56477;52.742;15.242;2023-08-31T10:00:26;7.47;;;4.23;;
69334;SDS011;56477;52.742;15.242;2023-08-31T10:02:58;8.77;;;4.38;;
69334;SDS011;56477;52.742;15.242;2023-08-31T10:05:27;10.05;;;5.90;;
69334;SDS011;56477;52.742;15.242;2023-08-31T10:07:54;9.93;;;5.57;;
69334;SDS011;56477;52.742;15.242;2023-08-31T10:10:21;10.63;;;5.53;;
69334;SDS011;56477;52.742;15.242;2023-08-31T10:12:48;5.37;;;3.30;;
69334;SDS011;56477;52.742;15.242;2023-08-31T10:15:15;9.95;;;5.65;;
69334;SDS011;56477;52.742;15.242;2023-08-31T10:17:42;7.40;;;3.40;;
69334;SDS011;56477;52.742;15.242;2023-08-31T10:20:09;8.63;;;4.95;;
69334;SDS011;56477;52.742;15.242;2023-08-31T10:22:37;6.53;;;3.22;;
69334;SDS011;56477;52.742;15.242;2023-08-31T10:25:04;7.37;;;4.23;;
69334;SDS011;56477;52.742;15.242;2023-08-31T10:27:41;8.50;;;5.13;;
69334;SDS011;56477;52.742;15.242;2023-08-31T10:32:41;6.30;;;2.97;;
69334;SDS011;56477;52.742;15.242;2023-08-31T10:35:08;10.03;;;5.20;;
69334;SDS011;56477;52.742;15.242;2023-08-31T10:37:35;5.75;;;3.05;;
69334;SDS011;56477;52.742;15.242;2023-08-31T10:40:10;6.32;;;2.80;;
69334;SDS011;56477;52.742;15.242;2023-08-31T10:42:46;8.20;;;3.75;;
69334;SDS011;56477;52.742;15.242;2023-08-31T10:45:13;7.43;;;4.23;;
69334;SDS011;56477;52.742;15.242;2023-08-31T10:47:40;11.57;;;6.35;;
69334;SDS011;56477;52.742;15.242;2023-08-31T10:50:24;10.60;;;4.57;;
69334;SDS011;56477;52.742;15.242;2023-08-31T10:52:50;6.90;;;3.88;;
69334;SDS011;56477;52.742;15.242;2023-08-31T10:55:16;8.93;;;4.23;;
69334;SDS011;56477;52.742;15.242;2023-08-31T10:57:42;9.63;;;5.00;;
69334;SDS011;56477;52.742;15.242;2023-08-31T11:00:08;10.65;;;4.90;;
69334;SDS011;56477;52.742;15.242;2023-08-31T11:02:43;12.38;;;5.63;;
69334;SDS011;56477;52.742;15.242;2023-08-31T11:05:10;6.63;;;3.50;;
69334;SDS011;56477;52.742;15.242;2023-08-31T11:07:39;9.07;;;5.03;;
69334;SDS011;56477;52.742;15.242;2023-08-31T11:10:10;6.30;;;2.67;;
69334;SDS011;56477;52.742;15.242;2023-08-31T11:12:39;4.72;;;2.53;;
69334;SDS011;56477;52.742;15.242;2023-08-31T11:15:06;7.38;;;3.67;;
69334;SDS011;56477;52.742;15.242;2023-08-31T11:17:33;6.32;;;2.60;;
69334;SDS011;56477;52.742;15.242;2023-08-31T11:19:59;4.77;;;2.30;;
69334;SDS011;56477;52.742;15.242;2023-08-31T11:22:27;4.50;;;2.65;;
69334;SDS011;56477;52.742;15.242;2023-08-31T11:24:52;5.22;;;3.00;;
69334;SDS011;56477;52.742;15.242;2023-08-31T11:27:19;7.60;;;3.72;;
69334;SDS011;56477;52.742;15.242;2023-08-31T11:29:46;6.55;;;3.00;;
69334;SDS011;56477;52.742;15.242;2023-08-31T11:32:13;6.77;;;3.33;;
69334;SDS011;56477;52.742;15.242;2023-08-31T11:34:43;5.32;;;2.78;;
69334;SDS011;56477;52.742;15.242;2023-08-31T11:37:10;4.15;;;3.17;;
69334;SDS011;56477;52.742;15.242;2023-08-31T11:39:42;5.15;;;2.38;;
69334;SDS011;56477;52.742;15.242;2023-08-31T11:42:18;6.10;;;2.75;;
69334;SDS011;56477;52.742;15.242;2023-08-31T11:44:49;6.00;;;2.80;;
69334;SDS011;56477;52.742;15.242;2023-08-31T11:47:17;5.35;;;2.35;;
69334;SDS011;56477;52.742;15.242;2023-08-31T11:49:44;2.63;;;1.40;;
69334;SDS011;56477;52.742;15.242;2023-08-31T11:52:11;3.35;;;1.70;;
69334;SDS011;56477;52.742;15.242;2023-08-31T11:54:39;4.57;;;2.20;;
69334;SDS011;56477;52.742;15.242;2023-08-31T11:57:09;3.83;;;2.23;;
69334;SDS011;56477;52.742;15.242;2023-08-31T11:59:35;3.78;;;0.90;;
69334;SDS011;56477;52.742;15.242;2023-08-31T12:02:06;3.72;;;2.05;;
69334;SDS011;56477;52.742;15.242;2023-08-31T12:04:42;4.05;;;1.70;;
69334;SDS011;56477;52.742;15.242;2023-08-31T12:07:12;4.32;;;2.53;;
69334;SDS011;56477;52.742;15.242;2023-08-31T12:09:42;3.37;;;2.10;;
69334;SDS011;56477;52.742;15.242;2023-08-31T12:12:10;4.05;;;2.35;;
69334;SDS011;56477;52.742;15.242;2023-08-31T12:14:37;5.45;;;2.30;;
69334;SDS011;56477;52.742;15.242;2023-08-31T12:17:06;3.70;;;2.33;;
69334;SDS011;56477;52.742;15.242;2023-08-31T12:19:35;4.00;;;2.17;;
69334;SDS011;56477;52.742;15.242;2023-08-31T12:22:03;3.07;;;2.10;;
69334;SDS011;56477;52.742;15.242;2023-08-31T12:24:29;3.15;;;2.20;;
69334;SDS011;56477;52.742;15.242;2023-08-31T12:27:02;5.72;;;1.40;;
69334;SDS011;56477;52.742;15.242;2023-08-31T12:29:28;2.72;;;1.00;;
69334;SDS011;56477;52.742;15.242;2023-08-31T12:31:54;2.25;;;1.15;;
69334;SDS011;56477;52.742;15.242;2023-08-31T12:34:20;3.30;;;1.10;;
69334;SDS011;56477;52.742;15.242;2023-08-31T12:36:47;3.65;;;1.20;;
69334;SDS011;56477;52.742;15.242;2023-08-31T12:39:12;2.55;;;0.88;;
69334;SDS011;56477;52.742;15.242;2023-08-31T12:41:39;2.90;;;1.27;;
69334;SDS011;56477;52.742;15.242;2023-08-31T12:44:05;2.83;;;1.20;;
69334;SDS011;56477;52.742;15.242;2023-08-31T12:46:34;2.78;;;1.02;;
69334;SDS011;56477;52.742;15.242;2023-08-31T12:49:01;3.00;;;1.58;;
69334;SDS011;56477;52.742;15.242;2023-08-31T12:51:29;2.08;;;1.10;;
69334;SDS011;56477;52.742;15.242;2023-08-31T12:53:56;4.40;;;1.10;;
69334;SDS011;56477;52.742;15.242;2023-08-31T12:56:22;1.83;;;0.77;;
69334;SDS011;56477;52.742;15.242;2023-08-31T12:58:49;3.88;;;1.00;;
69334;SDS011;56477;52.742;15.242;2023-08-31T13:01:19;1.73;;;0.90;;
69334;SDS011;56477;52.742;15.242;2023-08-31T13:03:46;3.95;;;1.00;;
69334;SDS011;56477;52.742;15.242;2023-08-31T13:06:13;5.72;;;1.60;;
69334;SDS011;56477;52.742;15.242;2023-08-31T13:08:39;3.10;;;1.13;;
69334;SDS011;56477;52.742;15.242;2023-08-31T13:11:06;2.47;;;1.30;;
69334;SDS011;56477;52.742;15.242;2023-08-31T13:13:32;2.20;;;1.00;;
69334;SDS011;56477;52.742;15.242;2023-08-31T13:15:58;2.50;;;1.05;;
69334;SDS011;56477;52.742;15.242;2023-08-31T13:18:24;3.30;;;1.00;;
69334;SDS011;56477;52.742;15.242;2023-08-31T13:20:50;1.80;;;0.82;;
69334;SDS011;56477;52.742;15.242;2023-08-31T13:23:17;2.03;;;0.90;;
69334;SDS011;56477;52.742;15.242;2023-08-31T13:25:44;2.22;;;1.00;;
69334;SDS011;56477;52.742;15.242;2023-08-31T13:28:10;1.63;;;0.60;;
69334;SDS011;56477;52.742;15.242;2023-08-31T13:30:36;1.60;;;0.70;;
69334;SDS011;56477;52.742;15.242;2023-08-31T13:33:02;2.28;;;0.60;;
69334;SDS011;56477;52.742;15.242;2023-08-31T13:35:30;1.73;;;0.77;;
69334;SDS011;56477;52.742;15.242;2023-08-31T13:37:56;1.52;;;0.55;;
69334;SDS011;56477;52.742;15.242;2023-08-31T13:40:22;4.63;;;1.00;;
69334;SDS011;56477;52.742;15.242;2023-08-31T13:42:49;2.13;;;0.63;;
69334;SDS011;56477;52.742;15.242;2023-08-31T13:45:29;2.90;;;0.88;;
69334;SDS011;56477;52.742;15.242;2023-08-31T13:47:58;2.15;;;1.13;;
69334;SDS011;56477;52.742;15.242;2023-08-31T13:50:28;2.03;;;0.87;;
69334;SDS011;56477;52.742;15.242;2023-08-31T13:52:54;3.05;;;1.05;;
69334;SDS011;56477;52.742;15.242;2023-08-31T13:55:20;3.30;;;0.68;;
69334;SDS011;56477;52.742;15.242;2023-08-31T13:57:47;3.28;;;1.52;;
69334;SDS011;56477;52.742;15.242;2023-08-31T14:00:13;4.20;;;1.33;;
69334;SDS011;56477;52.742;15.242;2023-08-31T14:02:39;3.20;;;1.37;;
69334;SDS011;56477;52.742;15.242;2023-08-31T14:05:09;2.63;;;1.20;;
69334;SDS011;56477;52.742;15.242;2023-08-31T14:07:35;2.67;;;1.30;;
69334;SDS011;56477;52.742;15.242;2023-08-31T14:10:02;4.20;;;1.30;;
69334;SDS011;56477;52.742;15.242;2023-08-31T14:12:32;2.88;;;1.17;;
69334;SDS011;56477;52.742;15.242;2023-08-31T14:14:59;2.63;;;1.00;;
69334;SDS011;56477;52.742;15.242;2023-08-31T14:17:26;2.67;;;0.80;;
69334;SDS011;56477;52.742;15.242;2023-08-31T14:19:53;2.55;;;0.80;;
69334;SDS011;56477;52.742;15.242;2023-08-31T14:22:18;4.90;;;1.13;;
69334;SDS011;56477;52.742;15.242;2023-08-31T14:24:44;2.47;;;0.70;;
69334;SDS011;56477;52.742;15.242;2023-08-31T14:27:10;5.28;;;1.63;;
69334;SDS011;56477;52.742;15.242;2023-08-31T14:29:36;1.67;;;0.70;;
69334;SDS011;56477;52.742;15.242;2023-08-31T14:32:02;2.22;;;0.70;;
69334;SDS011;56477;52.742;15.242;2023-08-31T14:34:28;2.23;;;0.70;;
69334;SDS011;56477;52.742;15.242;2023-08-31T14:36:54;1.83;;;0.50;;
69334;SDS011;56477;52.742;15.242;2023-08-31T14:39:23;1.73;;;0.40;;
69334;SDS011;56477;52.742;15.242;2023-08-31T14:41:54;2.13;;;0.73;;
69334;SDS011;56477;52.742;15.242;2023-08-31T14:44:22;2.25;;;0.57;;